createdAt,value
2022-09-12T00:01:40.456Z,6.93
2022-09-12T00:04:07.173Z,6.40
2022-09-12T00:06:36.113Z,6.95
2022-09-12T00:09:06.528Z,6.45
2022-09-12T00:11:37.004Z,8.00
2022-09-12T00:14:04.693Z,7.90
2022-09-12T00:16:33.873Z,7.50
2022-09-12T00:19:01.380Z,8.23
2022-09-12T00:21:28.539Z,7.07
2022-09-12T00:23:55.246Z,7.80
2022-09-12T00:26:22.107Z,7.43
2022-09-12T00:28:49.056Z,7.97
2022-09-12T00:31:18.228Z,7.20
2022-09-12T00:33:45.219Z,7.38
2022-09-12T00:36:14.898Z,7.45
2022-09-12T00:38:43.077Z,7.55
2022-09-12T00:41:22.956Z,7.63
2022-09-12T00:43:52.396Z,8.30
2022-09-12T00:46:37.439Z,7.68
2022-09-12T00:49:19.522Z,6.53
2022-09-12T00:51:50.498Z,6.72
2022-09-12T00:54:20.962Z,6.78
2022-09-12T00:56:54.693Z,6.85
2022-09-12T00:59:31.765Z,8.02
2022-09-12T01:01:58.663Z,6.68
2022-09-12T01:04:26.439Z,7.03
2022-09-12T01:06:54.322Z,7.70
2022-09-12T01:11:49.841Z,7.13
2022-09-12T01:14:17.652Z,7.40
2022-09-12T01:19:38.572Z,7.00
2022-09-12T01:22:23.208Z,6.72
2022-09-12T01:25:15.277Z,7.13
2022-09-12T01:27:44.105Z,7.25
2022-09-12T01:30:43.300Z,7.22
2022-09-12T01:33:21.234Z,7.85
2022-09-12T01:36:24.209Z,7.22
2022-09-12T01:39:15.139Z,7.28
2022-09-12T01:42:16.583Z,6.55
2022-09-12T01:44:52.240Z,6.90
2022-09-12T01:47:22.459Z,7.68
2022-09-12T01:50:11.271Z,7.50
2022-09-12T01:52:52.607Z,7.03
2022-09-12T01:55:34.067Z,6.68
2022-09-12T01:58:10.155Z,7.20
2022-09-12T02:00:44.310Z,6.50
2022-09-12T02:03:14.791Z,6.32
2022-09-12T02:06:01.526Z,6.88
2022-09-12T02:08:51.372Z,6.35
2022-09-12T02:11:18.320Z,7.35
2022-09-12T02:13:49.560Z,6.53
2022-09-12T02:16:30.813Z,7.18
2022-09-12T02:19:07.983Z,6.28
2022-09-12T02:21:36.805Z,6.43
2022-09-12T02:24:05.030Z,6.43
2022-09-12T02:26:35.446Z,6.97
2022-09-12T02:29:03.603Z,6.38
2022-09-12T02:31:46.691Z,7.38
2022-09-12T02:34:31.012Z,6.78
2022-09-12T02:37:01.483Z,5.97
2022-09-12T02:39:28.182Z,6.97
2022-09-12T02:41:55.933Z,6.55
2022-09-12T02:44:24.704Z,6.13
2022-09-12T02:46:54.925Z,6.97
2022-09-12T02:49:22.263Z,6.85
2022-09-12T02:51:49.195Z,6.93
2022-09-12T02:54:17.268Z,7.25
2022-09-12T02:56:45.347Z,6.72
2022-09-12T02:59:15.634Z,6.90
2022-09-12T03:02:04.456Z,6.90
2022-09-12T03:04:53.989Z,7.43
2022-09-12T03:07:23.422Z,6.63
2022-09-12T03:10:15.740Z,7.05
2022-09-12T03:13:03.965Z,6.63
2022-09-12T03:15:52.210Z,6.93
2022-09-12T03:18:52.021Z,7.03
2022-09-12T03:21:39.757Z,7.20
2022-09-12T03:24:19.372Z,7.47
2022-09-12T03:27:09.427Z,7.15
2022-09-12T03:29:38.506Z,7.30
2022-09-12T03:32:05.136Z,7.63
2022-09-12T03:34:32.124Z,7.03
2022-09-12T03:36:59.458Z,7.03
2022-09-12T03:39:26.910Z,7.57
2022-09-12T03:41:54.808Z,7.97
2022-09-12T03:46:47.826Z,6.85
2022-09-12T03:49:14.355Z,6.88
2022-09-12T03:51:41.261Z,6.88
2022-09-12T03:54:07.938Z,7.10
2022-09-12T03:56:35.358Z,7.20
2022-09-12T03:59:05.528Z,7.60
2022-09-12T04:01:32.183Z,6.45
2022-09-12T04:03:58.833Z,6.68
2022-09-12T04:06:25.420Z,7.25
2022-09-12T04:08:53.415Z,7.50
2022-09-12T04:11:21.884Z,7.05
2022-09-12T04:13:48.571Z,7.18
2022-09-12T04:16:16.596Z,6.53
2022-09-12T04:18:43.663Z,6.57
2022-09-12T04:21:12.963Z,6.53
2022-09-12T04:23:39.508Z,5.65
2022-09-12T04:26:09.097Z,5.90
2022-09-12T04:28:37.603Z,5.60
2022-09-12T04:31:07.527Z,5.55
2022-09-12T04:33:35.237Z,5.90
2022-09-12T04:36:10.683Z,5.72
2022-09-12T04:38:37.909Z,5.15
2022-09-12T04:41:15.155Z,4.82
2022-09-12T04:43:43.140Z,5.20
2022-09-12T04:46:11.450Z,5.10
2022-09-12T04:51:30.978Z,4.63
2022-09-12T04:54:03.090Z,5.43
2022-09-12T04:56:30.772Z,5.65
2022-09-12T04:58:58.730Z,5.60
2022-09-12T05:01:26.248Z,5.57
2022-09-12T05:03:52.917Z,5.22
2022-09-12T05:06:25.454Z,4.85
2022-09-12T05:08:52.872Z,5.07
2022-09-12T05:11:25.451Z,6.38
2022-09-12T05:13:54.921Z,5.30
2022-09-12T05:16:22.698Z,5.78
2022-09-12T05:18:50.230Z,5.70
2022-09-12T05:21:23.126Z,5.60
2022-09-12T05:23:57.476Z,6.95
2022-09-12T05:28:51.805Z,8.55
2022-09-12T05:31:23.786Z,7.32
2022-09-12T05:33:51.844Z,8.07
2022-09-12T05:36:21.502Z,7.75
2022-09-12T05:38:48.289Z,9.73
2022-09-12T05:41:24.242Z,8.23
2022-09-12T05:44:00.069Z,7.70
2022-09-12T05:46:28.570Z,8.68
2022-09-12T05:48:56.791Z,6.70
2022-09-12T05:51:28.481Z,6.63
2022-09-12T05:53:59.949Z,5.45
2022-09-12T05:56:28.737Z,6.15
2022-09-12T05:58:59.019Z,6.90
2022-09-12T06:01:27.111Z,6.45
2022-09-12T06:03:55.990Z,7.20
2022-09-12T06:06:24.416Z,6.18
2022-09-12T06:08:53.542Z,6.55
2022-09-12T06:11:23.098Z,6.85
2022-09-12T06:13:51.019Z,10.77
2022-09-12T06:18:49.659Z,8.65
2022-09-12T06:21:16.479Z,7.30
2022-09-12T06:23:43.160Z,7.82
2022-09-12T06:26:10.809Z,7.85
2022-09-12T06:28:39.923Z,7.35
2022-09-12T06:31:11.816Z,6.80
2022-09-12T06:33:42.033Z,7.53
2022-09-12T06:36:12.633Z,8.10
2022-09-12T06:38:40.391Z,8.95
2022-09-12T06:41:09.726Z,9.07
2022-09-12T06:43:37.010Z,9.50
2022-09-12T06:46:03.823Z,9.23
2022-09-12T06:48:31.144Z,9.82
2022-09-12T06:51:02.362Z,10.60
2022-09-12T06:53:30.272Z,9.65
2022-09-12T06:58:25.591Z,10.55
2022-09-12T07:00:55.998Z,11.02
2022-09-12T07:03:25.105Z,10.60
2022-09-12T07:05:51.608Z,11.50
2022-09-12T07:08:18.273Z,10.93
2022-09-12T07:10:45.497Z,11.57
2022-09-12T07:13:12.234Z,12.52
2022-09-12T07:15:38.873Z,11.82
2022-09-12T07:18:05.623Z,11.95
2022-09-12T07:20:35.748Z,12.23
2022-09-12T07:23:02.769Z,11.13
2022-09-12T07:25:29.366Z,11.38
2022-09-12T07:27:55.901Z,10.57
2022-09-12T07:30:23.123Z,10.75
2022-09-12T07:32:54.027Z,10.48
2022-09-12T07:35:21.332Z,10.95
2022-09-12T07:37:48.022Z,10.85
2022-09-12T07:40:14.683Z,10.82
2022-09-12T07:42:41.280Z,11.68
2022-09-12T07:45:08.188Z,10.77
2022-09-12T07:47:35.268Z,11.68
2022-09-12T07:50:02.354Z,10.32
2022-09-12T07:52:29.451Z,9.52
2022-09-12T07:54:55.981Z,8.70
2022-09-12T07:57:22.539Z,8.88
2022-09-12T07:59:52.849Z,9.00
2022-09-12T08:02:20.340Z,8.98
2022-09-12T08:04:48.006Z,9.68
2022-09-12T08:07:14.867Z,8.50
2022-09-12T08:09:41.450Z,8.77
2022-09-12T08:12:08.011Z,9.15
2022-09-12T08:14:34.552Z,7.60
2022-09-12T08:17:01.127Z,8.13
2022-09-12T08:19:27.751Z,7.32
2022-09-12T08:21:54.289Z,8.13
2022-09-12T08:24:20.783Z,8.23
2022-09-12T08:26:47.611Z,6.15
2022-09-12T08:29:14.515Z,6.60
2022-09-12T08:31:42.469Z,5.93
2022-09-12T08:34:09.421Z,6.13
2022-09-12T08:36:36.334Z,5.32
2022-09-12T08:39:06.527Z,4.93
2022-09-12T08:41:39.984Z,4.82
2022-09-12T08:44:28.481Z,4.47
2022-09-12T08:47:15.630Z,4.85
2022-09-12T08:49:51.463Z,4.88
2022-09-12T08:52:26.501Z,4.70
2022-09-12T08:54:56.309Z,4.05
2022-09-12T08:57:24.276Z,4.55
2022-09-12T08:59:51.414Z,4.22
2022-09-12T09:02:31.137Z,4.25
2022-09-12T09:05:35.292Z,4.00
2022-09-12T09:08:17.281Z,4.28
2022-09-12T09:10:54.943Z,4.13
2022-09-12T09:14:17.215Z,3.38
2022-09-12T09:16:44.964Z,4.82
2022-09-12T09:19:17.456Z,5.15
2022-09-12T09:21:49.971Z,3.92
2022-09-12T09:24:19.672Z,3.70
2022-09-12T09:26:53.479Z,3.50
2022-09-12T09:29:30.271Z,3.55
2022-09-12T09:31:58.769Z,3.40
2022-09-12T09:34:29.935Z,3.40
2022-09-12T09:37:21.233Z,2.97
2022-09-12T09:40:00.029Z,2.80
2022-09-12T09:42:43.852Z,3.28
2022-09-12T09:45:16.300Z,3.30
2022-09-12T09:47:48.965Z,3.33
2022-09-12T09:50:19.346Z,2.92
2022-09-12T09:52:47.552Z,2.75
2022-09-12T09:55:22.014Z,2.58
2022-09-12T09:57:49.929Z,2.72
2022-09-12T10:00:35.686Z,2.80
2022-09-12T10:03:22.166Z,2.35
2022-09-12T10:05:59.946Z,2.40
2022-09-12T10:08:35.212Z,2.88
2022-09-12T10:11:17.015Z,2.25
2022-09-12T10:13:56.854Z,2.70
2022-09-12T10:16:28.389Z,2.10
2022-09-12T10:18:56.867Z,2.20
2022-09-12T10:21:34.271Z,2.58
2022-09-12T10:24:24.407Z,2.30
2022-09-12T10:27:05.967Z,2.95
2022-09-12T10:29:36.176Z,2.00
2022-09-12T10:32:06.617Z,2.10
2022-09-12T10:34:39.914Z,1.90
2022-09-12T10:37:08.964Z,2.20
2022-09-12T10:39:38.486Z,1.90
2022-09-12T10:42:05.703Z,2.20
2022-09-12T10:44:34.115Z,1.90
2022-09-12T10:47:19.899Z,2.38
2022-09-12T10:49:46.554Z,2.10
2022-09-12T10:52:28.448Z,2.40
2022-09-12T10:54:55.090Z,2.42
2022-09-12T10:57:38.472Z,2.00
2022-09-12T11:00:19.798Z,2.00
2022-09-12T11:03:22.095Z,2.05
2022-09-12T11:05:58.422Z,1.88
2022-09-12T11:09:04.456Z,2.08
2022-09-12T11:12:02.454Z,2.30
2022-09-12T11:14:31.953Z,1.92
2022-09-12T11:17:19.810Z,1.90
2022-09-12T11:19:53.310Z,2.00
2022-09-12T11:23:00.349Z,1.65
2022-09-12T11:25:48.132Z,1.85
2022-09-12T11:28:25.965Z,2.10
2022-09-12T11:31:08.692Z,2.00
2022-09-12T11:33:43.243Z,2.70
2022-09-12T11:36:35.672Z,1.60
2022-09-12T11:39:15.870Z,2.10
2022-09-12T11:41:49.495Z,1.88
2022-09-12T11:44:24.749Z,1.58
2022-09-12T11:46:52.234Z,2.00
2022-09-12T11:49:24.271Z,1.50
2022-09-12T11:52:01.863Z,1.52
2022-09-12T11:54:31.303Z,1.70
2022-09-12T11:57:16.883Z,1.48
2022-09-12T11:59:48.014Z,1.70
2022-09-12T12:02:25.924Z,1.60
2022-09-12T12:05:39.222Z,1.63
2022-09-12T12:08:06.762Z,1.50
2022-09-12T12:13:13.816Z,1.40
2022-09-12T12:15:46.807Z,1.40
2022-09-12T12:18:24.688Z,1.65
2022-09-12T12:20:52.049Z,1.40
2022-09-12T12:23:34.859Z,1.30
2022-09-12T12:26:02.910Z,1.42
2022-09-12T12:28:41.750Z,1.55
2022-09-12T12:31:09.963Z,1.52
2022-09-12T12:33:39.554Z,1.65
2022-09-12T12:36:09.751Z,1.45
2022-09-12T12:38:38.258Z,1.30
2022-09-12T12:41:16.976Z,1.30
2022-09-12T12:43:45.278Z,1.23
2022-09-12T12:46:14.192Z,1.40
2022-09-12T12:49:05.985Z,1.48
2022-09-12T12:52:01.481Z,1.40
2022-09-12T12:54:40.313Z,1.40
2022-09-12T12:57:19.672Z,1.38
2022-09-12T12:59:52.428Z,1.42
2022-09-12T13:02:27.387Z,1.40
2022-09-12T13:04:55.356Z,1.42
2022-09-12T13:07:26.677Z,1.38
2022-09-12T13:09:54.582Z,1.60
2022-09-12T13:12:24.907Z,1.20
2022-09-12T13:14:59.447Z,1.15
2022-09-12T13:17:30.698Z,1.05
2022-09-12T13:20:28.010Z,1.15
2022-09-12T13:22:55.268Z,1.13
2022-09-12T13:25:32.501Z,1.30
2022-09-12T13:28:18.551Z,1.10
2022-09-12T13:30:56.033Z,1.10
2022-09-12T13:33:37.571Z,1.10
2022-09-12T13:36:14.231Z,1.00
2022-09-12T13:39:05.729Z,1.10
2022-09-12T13:42:05.075Z,1.10
2022-09-12T13:44:43.512Z,1.02
2022-09-12T13:47:14.706Z,1.00
2022-09-12T13:49:41.798Z,1.10
2022-09-12T13:52:14.654Z,1.00
2022-09-12T13:54:44.848Z,0.90
2022-09-12T13:57:29.351Z,1.00
2022-09-12T13:59:57.624Z,0.90
2022-09-12T14:02:27.745Z,1.02
2022-09-12T14:05:09.233Z,1.00
2022-09-12T14:07:59.814Z,0.90
2022-09-12T14:10:38.130Z,0.77
2022-09-12T14:13:11.971Z,0.85
2022-09-12T14:18:08.670Z,1.40
2022-09-12T14:20:39.375Z,0.70
2022-09-12T14:23:27.436Z,0.80
2022-09-12T14:25:56.280Z,0.90
2022-09-12T14:28:23.852Z,1.02
2022-09-12T14:31:06.685Z,0.98
2022-09-12T14:33:46.668Z,1.00
2022-09-12T14:36:49.932Z,0.85
2022-09-12T14:39:22.441Z,0.80
2022-09-12T14:41:49.650Z,0.70
2022-09-12T14:44:24.383Z,1.08
2022-09-12T14:46:51.319Z,0.77
2022-09-12T14:49:24.004Z,0.80
2022-09-12T14:51:51.480Z,0.70
2022-09-12T14:54:27.497Z,0.90
2022-09-12T14:56:56.621Z,1.05
2022-09-12T14:59:35.496Z,0.90
2022-09-12T15:02:17.127Z,0.90
2022-09-12T15:04:46.258Z,0.90
2022-09-12T15:07:50.311Z,0.90
2022-09-12T15:10:25.209Z,0.95
2022-09-12T15:13:14.202Z,0.80
2022-09-12T15:15:43.076Z,1.10
2022-09-12T15:18:09.672Z,0.60
2022-09-12T15:20:37.733Z,0.60
2022-09-12T15:23:06.529Z,0.90
2022-09-12T15:25:33.170Z,0.70
2022-09-12T15:28:00.714Z,0.88
2022-09-12T15:32:54.905Z,0.88
2022-09-12T15:35:33.081Z,1.00
2022-09-12T15:37:59.590Z,0.90
2022-09-12T15:40:26.559Z,0.77
2022-09-12T15:42:53.305Z,0.90
2022-09-12T15:45:24.875Z,1.20
2022-09-12T15:47:51.891Z,0.77
2022-09-12T15:50:18.435Z,0.90
2022-09-12T15:52:45.362Z,0.80
2022-09-12T15:55:26.250Z,0.90
2022-09-12T15:57:52.935Z,0.80
2022-09-12T16:00:20.295Z,0.70
2022-09-12T16:02:49.166Z,1.00
2022-09-12T16:05:19.683Z,0.80
2022-09-12T16:07:46.490Z,1.05
2022-09-12T16:10:18.186Z,1.30
2022-09-12T16:12:45.589Z,0.93
2022-09-12T16:15:15.315Z,1.30
2022-09-12T16:17:42.185Z,1.10
2022-09-12T16:20:09.383Z,0.90
2022-09-12T16:22:36.334Z,1.00
2022-09-12T16:25:04.177Z,1.00
2022-09-12T16:27:30.994Z,1.02
2022-09-12T16:29:57.731Z,0.90
2022-09-12T16:32:24.377Z,1.05
2022-09-12T16:34:50.891Z,0.95
2022-09-12T16:37:18.105Z,1.63
2022-09-12T16:39:45.004Z,1.40
2022-09-12T16:42:11.858Z,1.33
2022-09-12T16:44:38.387Z,1.10
2022-09-12T16:47:09.409Z,1.30
2022-09-12T16:49:35.978Z,1.20
2022-09-12T16:52:02.888Z,1.42
2022-09-12T16:54:29.485Z,1.38
2022-09-12T16:56:55.987Z,1.30
2022-09-12T16:59:22.539Z,1.40
2022-09-12T17:01:49.170Z,1.30
2022-09-12T17:04:15.787Z,1.20
2022-09-12T17:06:42.533Z,1.10
2022-09-12T17:09:11.110Z,1.25
2022-09-12T17:11:38.886Z,1.40
2022-09-12T17:14:07.559Z,1.30
2022-09-12T17:16:36.631Z,1.40
2022-09-12T17:19:03.915Z,1.40
2022-09-12T17:21:30.893Z,1.38
2022-09-12T17:23:57.394Z,1.50
2022-09-12T17:26:24.424Z,1.48
2022-09-12T17:28:51.022Z,1.60
2022-09-12T17:31:17.627Z,1.40
2022-09-12T17:33:44.382Z,1.60
2022-09-12T17:36:16.545Z,1.33
2022-09-12T17:38:45.171Z,1.40
2022-09-12T17:41:17.626Z,1.15
2022-09-12T17:43:46.307Z,1.30
2022-09-12T17:46:13.207Z,1.50
2022-09-12T17:48:39.838Z,1.63
2022-09-12T17:51:14.377Z,1.30
2022-09-12T17:53:42.092Z,1.50
2022-09-12T17:58:36.447Z,1.52
2022-09-12T18:01:24.375Z,1.40
2022-09-12T18:03:54.855Z,1.70
2022-09-12T18:06:22.703Z,1.40
2022-09-12T18:08:49.266Z,1.42
2022-09-12T18:11:16.546Z,1.55
2022-09-12T18:13:43.093Z,1.75
2022-09-12T18:16:12.618Z,1.38
2022-09-12T18:18:39.428Z,1.80
2022-09-12T18:21:07.023Z,2.33
2022-09-12T18:26:08.289Z,1.70
2022-09-12T18:28:37.465Z,1.92
2022-09-12T18:31:05.047Z,2.20
2022-09-12T18:36:04.269Z,1.98
2022-09-12T18:38:31.227Z,2.13
2022-09-12T18:41:05.044Z,2.10
2022-09-12T18:43:32.032Z,1.92
2022-09-12T18:46:09.639Z,1.77
2022-09-12T18:48:36.334Z,1.70
2022-09-12T18:51:07.993Z,1.60
2022-09-12T18:53:35.508Z,2.00
2022-09-12T18:56:04.051Z,1.80
2022-09-12T18:58:30.628Z,1.90
2022-09-12T19:00:58.093Z,1.83
2022-09-12T19:03:24.939Z,2.28
2022-09-12T19:05:51.563Z,1.65
2022-09-12T19:08:18.147Z,1.90
2022-09-12T19:10:44.709Z,2.53
2022-09-12T19:13:11.171Z,2.15
2022-09-12T19:15:40.259Z,2.50
2022-09-12T19:18:06.871Z,2.40
2022-09-12T19:20:35.810Z,2.35
2022-09-12T19:23:02.555Z,2.40
2022-09-12T19:25:29.353Z,2.38
2022-09-12T19:27:55.912Z,2.95
2022-09-12T19:30:22.454Z,2.58
2022-09-12T19:32:48.983Z,2.22
2022-09-12T19:35:15.735Z,2.40
2022-09-12T19:37:42.491Z,2.58
2022-09-12T19:40:09.398Z,2.03
2022-09-12T19:42:35.947Z,2.05
2022-09-12T19:45:02.475Z,2.03
2022-09-12T19:47:29.437Z,2.00
2022-09-12T19:49:57.189Z,2.25
2022-09-12T19:54:50.160Z,2.17
2022-09-12T19:57:17.395Z,2.20
2022-09-12T19:59:45.095Z,2.00
2022-09-12T20:02:11.683Z,2.22
2022-09-12T20:04:39.095Z,2.08
2022-09-12T20:07:05.621Z,1.83
2022-09-12T20:09:32.095Z,1.83
2022-09-12T20:11:58.688Z,1.50
2022-09-12T20:14:25.186Z,1.70
2022-09-12T20:16:51.755Z,1.83
2022-09-12T20:19:18.293Z,2.13
2022-09-12T20:21:44.988Z,1.90
2022-09-12T20:24:13.586Z,1.60
2022-09-12T20:26:40.407Z,1.92
2022-09-12T20:29:08.037Z,1.90
2022-09-12T20:31:35.561Z,1.90
2022-09-12T20:34:02.501Z,1.70
2022-09-12T20:36:29.099Z,2.03
2022-09-12T20:38:57.957Z,1.92
2022-09-12T20:41:25.586Z,1.70
2022-09-12T20:43:53.392Z,1.75
2022-09-12T20:46:22.087Z,2.10
2022-09-12T20:48:49.474Z,2.13
2022-09-12T20:51:16.683Z,2.00
2022-09-12T20:53:43.240Z,2.20
2022-09-12T20:56:09.928Z,2.10
2022-09-12T20:58:40.411Z,2.22
2022-09-12T21:01:14.146Z,2.20
2022-09-12T21:03:43.903Z,2.10
2022-09-12T21:06:12.615Z,1.80
2022-09-12T21:08:39.550Z,2.38
2022-09-12T21:11:06.533Z,1.80
2022-09-12T21:13:35.908Z,2.03
2022-09-12T21:16:24.042Z,2.28
2022-09-12T21:18:59.613Z,2.20
2022-09-12T21:21:26.642Z,2.25
2022-09-12T21:23:55.318Z,2.10
2022-09-12T21:26:21.896Z,2.17
2022-09-12T21:28:48.592Z,2.65
2022-09-12T21:31:15.206Z,2.20
2022-09-12T21:33:42.049Z,2.10
2022-09-12T21:36:09.608Z,2.33
2022-09-12T21:38:36.338Z,2.10
2022-09-12T21:41:10.990Z,2.75
2022-09-12T21:43:38.277Z,2.25
2022-09-12T21:46:05.674Z,2.08
2022-09-12T21:48:33.014Z,2.25
2022-09-12T21:50:59.708Z,2.30
2022-09-12T21:53:26.637Z,2.08
2022-09-12T21:55:53.483Z,2.47
2022-09-12T21:58:20.156Z,2.30
2022-09-12T22:00:47.130Z,2.58
2022-09-12T22:03:14.420Z,2.78
2022-09-12T22:05:41.039Z,2.35
2022-09-12T22:08:08.027Z,2.10
2022-09-12T22:10:34.650Z,2.22
2022-09-12T22:13:01.602Z,2.53
2022-09-12T22:15:43.577Z,2.00
2022-09-12T22:18:10.709Z,2.33
2022-09-12T22:20:37.317Z,2.33
2022-09-12T22:23:24.765Z,2.40
2022-09-12T22:25:54.314Z,2.30
2022-09-12T22:28:21.268Z,2.45
2022-09-12T22:30:48.592Z,2.25
2022-09-12T22:33:15.412Z,2.47
2022-09-12T22:35:42.411Z,2.35
2022-09-12T22:38:09.183Z,2.38
2022-09-12T22:40:35.881Z,2.38
2022-09-12T22:43:02.548Z,2.42
2022-09-12T22:45:29.194Z,2.40
2022-09-12T22:47:59.189Z,2.55
2022-09-12T22:50:27.597Z,2.40
2022-09-12T22:52:54.175Z,2.58
2022-09-12T22:55:20.671Z,2.60
2022-09-12T22:57:47.243Z,1.90
2022-09-12T23:00:14.885Z,2.50
2022-09-12T23:02:41.632Z,2.50
2022-09-12T23:05:08.621Z,2.70
2022-09-12T23:07:35.246Z,2.35
2022-09-12T23:10:01.761Z,2.30
2022-09-12T23:12:28.302Z,2.03
2022-09-12T23:14:54.800Z,2.42
2022-09-12T23:17:21.368Z,2.28
2022-09-12T23:19:48.390Z,2.40
2022-09-12T23:22:14.974Z,2.72
2022-09-12T23:24:41.591Z,2.33
2022-09-12T23:27:08.307Z,2.30
2022-09-12T23:29:35.377Z,2.78
2022-09-12T23:32:03.301Z,2.58
2022-09-12T23:36:56.644Z,2.45
2022-09-12T23:39:23.410Z,2.70
2022-09-12T23:41:50.381Z,2.38
2022-09-12T23:44:17.073Z,2.70
2022-09-12T23:46:43.617Z,2.58
2022-09-12T23:49:10.115Z,2.47
2022-09-12T23:51:36.769Z,2.90
2022-09-12T23:54:03.473Z,2.50
2022-09-12T23:56:30.057Z,2.53
2022-09-12T23:58:56.591Z,2.70
